sensor_id;sensor_type;location;lat;lon;timestamp;temperature;humidity
1538;DHT22;12022;52.266;10.522;2022-12-07T00:01:21;5.10;99.90
1538;DHT22;12022;52.266;10.522;2022-12-07T00:03:49;5.20;99.90
1538;DHT22;12022;52.266;10.522;2022-12-07T00:06:17;5.20;99.90
1538;DHT22;12022;52.266;10.522;2022-12-07T00:08:45;5.20;99.90
1538;DHT22;12022;52.266;10.522;2022-12-07T00:11:17;5.20;99.90
1538;DHT22;12022;52.266;10.522;2022-12-07T00:13:45;5.40;99.90
1538;DHT22;12022;52.266;10.522;2022-12-07T00:16:13;5.30;99.90
1538;DHT22;12022;52.266;10.522;2022-12-07T00:18:41;5.30;99.90
1538;DHT22;12022;52.266;10.522;2022-12-07T00:21:22;5.40;99.90
1538;DHT22;12022;52.266;10.522;2022-12-07T00:23:50;5.70;99.90
1538;DHT22;12022;52.266;10.522;2022-12-07T00:26:24;5.40;99.90
1538;DHT22;12022;52.266;10.522;2022-12-07T00:28:53;5.50;99.90
1538;DHT22;12022;52.266;10.522;2022-12-07T00:31:23;5.50;99.90
1538;DHT22;12022;52.266;10.522;2022-12-07T00:33:50;5.50;99.90
1538;DHT22;12022;52.266;10.522;2022-12-07T00:36:22;5.50;99.90
1538;DHT22;12022;52.266;10.522;2022-12-07T00:38:54;5.60;99.90
1538;DHT22;12022;52.266;10.522;2022-12-07T00:41:23;5.70;99.90
1538;DHT22;12022;52.266;10.522;2022-12-07T00:43:51;5.90;99.90
1538;DHT22;12022;52.266;10.522;2022-12-07T00:46:19;5.50;99.90
1538;DHT22;12022;52.266;10.522;2022-12-07T00:48:47;5.50;99.90
1538;DHT22;12022;52.266;10.522;2022-12-07T00:51:16;5.50;99.90
1538;DHT22;12022;52.266;10.522;2022-12-07T00:53:43;5.50;99.90
1538;DHT22;12022;52.266;10.522;2022-12-07T00:56:22;5.50;99.90
1538;DHT22;12022;52.266;10.522;2022-12-07T00:58:58;5.50;99.90
1538;DHT22;12022;52.266;10.522;2022-12-07T01:01:27;5.50;99.90
1538;DHT22;12022;52.266;10.522;2022-12-07T01:03:55;5.50;99.90
1538;DHT22;12022;52.266;10.522;2022-12-07T01:06:23;5.50;99.90
1538;DHT22;12022;52.266;10.522;2022-12-07T01:08:50;5.50;99.90
1538;DHT22;12022;52.266;10.522;2022-12-07T01:11:20;5.60;99.90
1538;DHT22;12022;52.266;10.522;2022-12-07T01:13:48;5.60;99.90
1538;DHT22;12022;52.266;10.522;2022-12-07T01:16:17;5.60;99.90
1538;DHT22;12022;52.266;10.522;2022-12-07T01:18:47;5.60;99.90
1538;DHT22;12022;52.266;10.522;2022-12-07T01:21:17;5.60;99.90
1538;DHT22;12022;52.266;10.522;2022-12-07T01:23:44;5.60;99.90
1538;DHT22;12022;52.266;10.522;2022-12-07T01:26:13;5.60;99.90
1538;DHT22;12022;52.266;10.522;2022-12-07T01:28:41;5.60;99.90
1538;DHT22;12022;52.266;10.522;2022-12-07T01:31:13;5.60;99.90
1538;DHT22;12022;52.266;10.522;2022-12-07T01:33:52;5.60;99.90
1538;DHT22;12022;52.266;10.522;2022-12-07T01:36:34;5.60;99.90
1538;DHT22;12022;52.266;10.522;2022-12-07T01:39:05;5.60;99.90
1538;DHT22;12022;52.266;10.522;2022-12-07T01:41:34;5.60;99.90
1538;DHT22;12022;52.266;10.522;2022-12-07T01:46:54;5.60;99.90
1538;DHT22;12022;52.266;10.522;2022-12-07T01:52:22;5.70;99.90
1538;DHT22;12022;52.266;10.522;2022-12-07T01:54:54;5.70;99.90
1538;DHT22;12022;52.266;10.522;2022-12-07T01:57:24;5.60;99.90
1538;DHT22;12022;52.266;10.522;2022-12-07T01:59:52;5.60;99.90
1538;DHT22;12022;52.266;10.522;2022-12-07T02:02:24;5.60;99.90
1538;DHT22;12022;52.266;10.522;2022-12-07T02:04:54;5.60;99.90
1538;DHT22;12022;52.266;10.522;2022-12-07T02:07:23;5.60;99.90
1538;DHT22;12022;52.266;10.522;2022-12-07T02:09:50;5.90;99.90
1538;DHT22;12022;52.266;10.522;2022-12-07T02:12:17;5.60;99.90
1538;DHT22;12022;52.266;10.522;2022-12-07T02:14:44;5.90;99.90
1538;DHT22;12022;52.266;10.522;2022-12-07T02:25:20;5.60;99.90
1538;DHT22;12022;52.266;10.522;2022-12-07T02:28:12;5.60;99.90
1538;DHT22;12022;52.266;10.522;2022-12-07T02:30:47;5.50;99.90
1538;DHT22;12022;52.266;10.522;2022-12-07T02:33:19;5.50;99.90
1538;DHT22;12022;52.266;10.522;2022-12-07T02:36:02;5.40;99.90
1538;DHT22;12022;52.266;10.522;2022-12-07T02:38:43;5.80;99.90
1538;DHT22;12022;52.266;10.522;2022-12-07T02:41:26;5.50;99.90
1538;DHT22;12022;52.266;10.522;2022-12-07T02:44:12;5.70;99.90
1538;DHT22;12022;52.266;10.522;2022-12-07T02:46:43;5.40;99.90
1538;DHT22;12022;52.266;10.522;2022-12-07T02:49:11;5.40;99.90
1538;DHT22;12022;52.266;10.522;2022-12-07T02:51:43;5.40;99.90
1538;DHT22;12022;52.266;10.522;2022-12-07T02:54:13;5.50;99.90
1538;DHT22;12022;52.266;10.522;2022-12-07T03:07:51;5.50;99.90
1538;DHT22;12022;52.266;10.522;2022-12-07T03:21:15;5.50;99.90
1538;DHT22;12022;52.266;10.522;2022-12-07T03:23:46;5.50;99.90
1538;DHT22;12022;52.266;10.522;2022-12-07T03:26:17;5.60;99.90
1538;DHT22;12022;52.266;10.522;2022-12-07T03:28:51;5.90;99.90
1538;DHT22;12022;52.266;10.522;2022-12-07T03:31:23;5.70;99.90
1538;DHT22;12022;52.266;10.522;2022-12-07T03:34:03;5.80;99.90
1538;DHT22;12022;52.266;10.522;2022-12-07T03:36:50;5.90;99.90
1538;DHT22;12022;52.266;10.522;2022-12-07T03:39:27;5.90;99.90
1538;DHT22;12022;52.266;10.522;2022-12-07T03:41:59;5.70;99.90
1538;DHT22;12022;52.266;10.522;2022-12-07T03:44:27;5.70;99.90
1538;DHT22;12022;52.266;10.522;2022-12-07T03:47:16;5.70;99.90
1538;DHT22;12022;52.266;10.522;2022-12-07T03:50:22;5.70;99.90
1538;DHT22;12022;52.266;10.522;2022-12-07T03:52:58;5.70;99.90
1538;DHT22;12022;52.266;10.522;2022-12-07T03:55:39;5.70;99.90
1538;DHT22;12022;52.266;10.522;2022-12-07T03:58:11;5.70;99.90
1538;DHT22;12022;52.266;10.522;2022-12-07T04:00:43;5.60;99.90
1538;DHT22;12022;52.266;10.522;2022-12-07T04:03:10;5.60;99.90
1538;DHT22;12022;52.266;10.522;2022-12-07T04:05:38;5.50;99.90
1538;DHT22;12022;52.266;10.522;2022-12-07T04:08:06;5.50;99.90
1538;DHT22;12022;52.266;10.522;2022-12-07T04:10:33;5.50;99.90
1538;DHT22;12022;52.266;10.522;2022-12-07T04:13:00;5.70;99.90
1538;DHT22;12022;52.266;10.522;2022-12-07T04:15:26;5.60;99.90
1538;DHT22;12022;52.266;10.522;2022-12-07T04:17:53;5.60;99.90
1538;DHT22;12022;52.266;10.522;2022-12-07T04:20:21;5.70;99.90
1538;DHT22;12022;52.266;10.522;2022-12-07T04:22:48;5.70;99.90
1538;DHT22;12022;52.266;10.522;2022-12-07T04:25:15;5.70;99.90
1538;DHT22;12022;52.266;10.522;2022-12-07T04:27:42;5.70;99.90
1538;DHT22;12022;52.266;10.522;2022-12-07T04:30:09;5.70;99.90
1538;DHT22;12022;52.266;10.522;2022-12-07T04:32:36;5.70;99.90
1538;DHT22;12022;52.266;10.522;2022-12-07T04:35:06;5.70;99.90
1538;DHT22;12022;52.266;10.522;2022-12-07T04:37:34;5.80;99.90
1538;DHT22;12022;52.266;10.522;2022-12-07T04:40:01;5.80;99.90
1538;DHT22;12022;52.266;10.522;2022-12-07T04:42:28;5.80;99.90
1538;DHT22;12022;52.266;10.522;2022-12-07T04:44:55;6.10;99.90
1538;DHT22;12022;52.266;10.522;2022-12-07T04:47:22;5.70;99.90
1538;DHT22;12022;52.266;10.522;2022-12-07T04:49:49;5.70;99.90
1538;DHT22;12022;52.266;10.522;2022-12-07T04:52:16;5.70;99.90
1538;DHT22;12022;52.266;10.522;2022-12-07T04:54:46;5.70;99.90
1538;DHT22;12022;52.266;10.522;2022-12-07T04:57:13;5.70;99.90
1538;DHT22;12022;52.266;10.522;2022-12-07T04:59:39;6.00;99.90
1538;DHT22;12022;52.266;10.522;2022-12-07T05:02:11;5.70;99.90
1538;DHT22;12022;52.266;10.522;2022-12-07T05:04:38;6.00;99.90
1538;DHT22;12022;52.266;10.522;2022-12-07T05:07:05;5.70;99.90
1538;DHT22;12022;52.266;10.522;2022-12-07T05:09:32;5.70;99.90
1538;DHT22;12022;52.266;10.522;2022-12-07T05:11:59;5.70;99.90
1538;DHT22;12022;52.266;10.522;2022-12-07T05:14:26;5.80;99.90
1538;DHT22;12022;52.266;10.522;2022-12-07T05:16:53;5.80;99.90
1538;DHT22;12022;52.266;10.522;2022-12-07T05:19:20;5.80;99.90
1538;DHT22;12022;52.266;10.522;2022-12-07T05:21:47;5.70;99.90
1538;DHT22;12022;52.266;10.522;2022-12-07T05:24:15;5.60;99.90
1538;DHT22;12022;52.266;10.522;2022-12-07T05:26:44;5.60;99.90
1538;DHT22;12022;52.266;10.522;2022-12-07T05:29:13;5.60;99.90
1538;DHT22;12022;52.266;10.522;2022-12-07T05:31:40;5.80;99.90
1538;DHT22;12022;52.266;10.522;2022-12-07T05:34:08;5.70;99.90
1538;DHT22;12022;52.266;10.522;2022-12-07T05:36:35;5.80;99.90
1538;DHT22;12022;52.266;10.522;2022-12-07T05:39:02;5.50;99.90
1538;DHT22;12022;52.266;10.522;2022-12-07T05:41:29;5.50;99.90
1538;DHT22;12022;52.266;10.522;2022-12-07T05:44:15;5.50;99.90
1538;DHT22;12022;52.266;10.522;2022-12-07T05:46:42;5.60;99.90
1538;DHT22;12022;52.266;10.522;2022-12-07T05:49:08;5.80;99.90
1538;DHT22;12022;52.266;10.522;2022-12-07T05:51:35;5.50;99.90
1538;DHT22;12022;52.266;10.522;2022-12-07T05:54:02;5.50;99.90
1538;DHT22;12022;52.266;10.522;2022-12-07T05:56:29;5.50;99.90
1538;DHT22;12022;52.266;10.522;2022-12-07T05:58:56;5.50;99.90
1538;DHT22;12022;52.266;10.522;2022-12-07T06:01:42;5.50;99.90
1538;DHT22;12022;52.266;10.522;2022-12-07T06:04:09;5.60;99.90
1538;DHT22;12022;52.266;10.522;2022-12-07T06:06:36;5.80;99.90
1538;DHT22;12022;52.266;10.522;2022-12-07T06:09:04;5.80;99.90
1538;DHT22;12022;52.266;10.522;2022-12-07T06:11:31;5.60;99.90
1538;DHT22;12022;52.266;10.522;2022-12-07T06:14:16;5.60;99.90
1538;DHT22;12022;52.266;10.522;2022-12-07T06:16:46;5.60;99.90
1538;DHT22;12022;52.266;10.522;2022-12-07T06:19:13;5.60;99.90
1538;DHT22;12022;52.266;10.522;2022-12-07T06:21:41;5.50;99.90
1538;DHT22;12022;52.266;10.522;2022-12-07T06:24:13;5.40;99.90
1538;DHT22;12022;52.266;10.522;2022-12-07T06:26:41;5.30;99.90
1538;DHT22;12022;52.266;10.522;2022-12-07T06:29:09;5.20;99.90
1538;DHT22;12022;52.266;10.522;2022-12-07T06:31:37;5.20;99.90
1538;DHT22;12022;52.266;10.522;2022-12-07T06:34:08;5.20;99.90
1538;DHT22;12022;52.266;10.522;2022-12-07T06:36:35;5.20;99.90
1538;DHT22;12022;52.266;10.522;2022-12-07T06:39:03;5.30;99.90
1538;DHT22;12022;52.266;10.522;2022-12-07T06:41:30;5.40;99.90
1538;DHT22;12022;52.266;10.522;2022-12-07T06:43:57;5.40;99.90
1538;DHT22;12022;52.266;10.522;2022-12-07T10:35:37;6.60;99.90
1538;DHT22;12022;52.266;10.522;2022-12-07T13:47:34;6.60;99.90
1538;DHT22;12022;52.266;10.522;2022-12-07T14:46:07;6.30;99.90
1538;DHT22;12022;52.266;10.522;2022-12-07T14:48:45;6.20;99.90
1538;DHT22;12022;52.266;10.522;2022-12-07T15:54:42;6.00;99.90
1538;DHT22;12022;52.266;10.522;2022-12-07T15:57:13;6.00;99.90
1538;DHT22;12022;52.266;10.522;2022-12-07T15:59:50;6.00;99.90
1538;DHT22;12022;52.266;10.522;2022-12-07T17:09:35;4.20;99.90
1538;DHT22;12022;52.266;10.522;2022-12-07T17:12:21;4.00;99.90
1538;DHT22;12022;52.266;10.522;2022-12-07T18:20:15;4.60;99.90
1538;DHT22;12022;52.266;10.522;2022-12-07T22:33:10;5.00;99.90
1538;DHT22;12022;52.266;10.522;2022-12-07T22:35:54;5.00;99.90
